Time;durP1;ratioP1;P1;durP2;ratioP2;P2;SDS_P1;SDS_P2;PMS_P1;PMS_P2;Temp;Humidity;BMP_temperature;BMP_pressure;BME280_temperature;BME280_humidity;BME280_pressure;Samples;Min_cycle;Max_cycle;Signal;HPM_P1;HPM_P2
2022/05/18 00:01:43;;;;;;;;;;;21.40;58.00;;;;;;5119906;28;19957;-46
2022/05/18 00:04:09;;;;;;;;;;;21.00;56.60;;;;;;5107456;28;19959;-44
2022/05/18 00:06:35;;;;;;;;;;;20.10;56.20;;;;;;5120745;28;20290;-45
2022/05/18 00:09:01;;;;;;;;;;;20.00;55.00;;;;;;5102117;28;19971;-48
2022/05/18 00:11:26;;;;;;;;;;;20.00;53.70;;;;;;5125927;28;19938;-46
2022/05/18 00:13:53;;;;;;;;;;;20.00;53.50;;;;;;5120660;28;19973;-45
2022/05/18 00:16:19;;;;;;;;;;;20.00;55.10;;;;;;5123649;28;20434;-47
2022/05/18 00:18:45;;;;;;;;;;;20.90;58.10;;;;;;5119032;28;19923;-46
2022/05/18 00:21:11;;;;;;;;;;;21.50;58.10;;;;;;5120123;28;19924;-46
2022/05/18 00:23:37;;;;;;;;;;;20.80;56.80;;;;;;5125382;28;19969;-47
2022/05/18 00:26:03;;;;;;;;;;;20.10;55.50;;;;;;5101924;28;19963;-45
2022/05/18 00:28:29;;;;;;;;;;;20.00;54.50;;;;;;5120027;28;20066;-45
2022/05/18 00:30:56;;;;;;;;;;;19.80;53.90;;;;;;5125814;28;19930;-47
2022/05/18 00:33:22;;;;;;;;;;;20.00;54.60;;;;;;5099757;28;19927;-50
2022/05/18 00:35:47;;;;;;;;;;;20.80;58.30;;;;;;5123241;28;19923;-49
2022/05/18 00:38:13;;;;;;;;;;;21.40;58.20;;;;;;5119714;28;20375;-46
2022/05/18 00:40:40;;;;;;;;;;;21.00;56.60;;;;;;5101450;28;19923;-46
2022/05/18 00:43:06;;;;;;;;;;;20.20;55.90;;;;;;5107050;28;19972;-46
2022/05/18 00:45:31;;;;;;;;;;;19.90;54.90;;;;;;5101379;28;19931;-45
2022/05/18 00:47:57;;;;;;;;;;;19.80;54.10;;;;;;5101373;28;20264;-47
2022/05/18 00:50:25;;;;;;;;;;;19.90;54.70;;;;;;5125497;28;19927;-46
2022/05/18 00:52:53;;;;;;;;;;;20.80;58.50;;;;;;5099528;28;19952;-47
2022/05/18 00:55:22;;;;;;;;;;;21.40;58.20;;;;;;5121470;27;19930;-56
2022/05/18 00:57:50;;;;;;;;;;;21.10;56.80;;;;;;5109904;28;19924;-46
2022/05/18 01:00:16;;;;;;;;;;;20.30;55.90;;;;;;5123459;28;19932;-45
2022/05/18 01:02:43;;;;;;;;;;;20.00;54.60;;;;;;5110525;28;19924;-46
2022/05/18 01:05:10;;;;;;;;;;;20.00;54.00;;;;;;5105062;28;19923;-45
2022/05/18 01:07:37;;;;;;;;;;;19.60;53.80;;;;;;5123388;28;20021;-47
2022/05/18 01:10:03;;;;;;;;;;;20.40;58.20;;;;;;5128148;28;19931;-50
2022/05/18 01:12:29;;;;;;;;;;;21.20;58.70;;;;;;5120640;28;19924;-47
2022/05/18 01:14:56;;;;;;;;;;;21.60;57.00;;;;;;5122431;28;20127;-46
2022/05/18 01:17:26;;;;;;;;;;;20.50;56.00;;;;;;5128587;28;19923;-45
2022/05/18 01:19:52;;;;;;;;;;;20.00;55.10;;;;;;5104759;28;19977;-47
2022/05/18 01:22:37;;;;;;;;;;;19.80;54.30;;;;;;5127147;28;20390;-52
2022/05/18 01:25:21;;;;;;;;;;;19.80;53.10;;;;;;5128364;28;19971;-45
2022/05/18 01:27:47;;;;;;;;;;;20.60;58.40;;;;;;5123094;28;20030;-45
2022/05/18 01:30:13;;;;;;;;;;;21.40;58.00;;;;;;5120352;28;20291;-54
2022/05/18 01:32:39;;;;;;;;;;;21.30;56.20;;;;;;5127489;28;19927;-45
2022/05/18 01:35:05;;;;;;;;;;;20.30;55.80;;;;;;5122575;28;19924;-50
2022/05/18 01:37:31;;;;;;;;;;;20.00;54.70;;;;;;5128376;28;19923;-46
2022/05/18 01:39:58;;;;;;;;;;;19.90;54.10;;;;;;5122734;28;19976;-45
2022/05/18 01:42:29;;;;;;;;;;;20.50;58.50;;;;;;5122829;28;19930;-45
2022/05/18 01:44:55;;;;;;;;;;;21.30;58.00;;;;;;5128295;28;19963;-44
2022/05/18 01:47:21;;;;;;;;;;;21.30;56.10;;;;;;5121255;28;19927;-47
2022/05/18 01:49:47;;;;;;;;;;;20.30;55.50;;;;;;5120627;28;19936;-47
2022/05/18 01:52:12;;;;;;;;;;;20.00;54.50;;;;;;5127506;28;19927;-45
2022/05/18 01:54:39;;;;;;;;;;;19.70;54.00;;;;;;5122481;28;20372;-47
2022/05/18 01:57:08;;;;;;;;;;;20.50;58.40;;;;;;5128093;28;20018;-48
2022/05/18 01:59:34;;;;;;;;;;;21.30;57.80;;;;;;5123606;28;20354;-45
2022/05/18 02:02:00;;;;;;;;;;;21.20;56.30;;;;;;5122344;28;20443;-47
2022/05/18 02:04:25;;;;;;;;;;;20.30;55.50;;;;;;5109572;28;19930;-47
2022/05/18 02:06:51;;;;;;;;;;;20.00;54.50;;;;;;5118970;27;20362;-47
2022/05/18 02:09:19;;;;;;;;;;;19.70;53.70;;;;;;5121293;28;20030;-46
2022/05/18 02:11:45;;;;;;;;;;;19.70;54.20;;;;;;5127249;28;19927;-49
2022/05/18 02:14:11;;;;;;;;;;;20.50;58.50;;;;;;5122669;28;20206;-45
2022/05/18 02:16:37;;;;;;;;;;;21.30;58.10;;;;;;5123563;28;19923;-55
2022/05/18 02:19:02;;;;;;;;;;;21.50;56.30;;;;;;5126548;28;19935;-46
2022/05/18 02:21:28;;;;;;;;;;;20.40;55.60;;;;;;5122100;28;19937;-47
2022/05/18 02:23:55;;;;;;;;;;;20.00;54.50;;;;;;5126247;28;20034;-46
2022/05/18 02:26:21;;;;;;;;;;;19.70;53.80;;;;;;5119920;28;19930;-48
2022/05/18 02:28:47;;;;;;;;;;;20.30;58.50;;;;;;5121347;28;19927;-46
2022/05/18 02:31:12;;;;;;;;;;;21.20;58.00;;;;;;5127160;28;20552;-46
2022/05/18 02:33:38;;;;;;;;;;;21.60;56.30;;;;;;5122040;28;19963;-46
2022/05/18 02:36:06;;;;;;;;;;;20.50;55.70;;;;;;5121785;28;19984;-44
2022/05/18 02:38:32;;;;;;;;;;;20.10;54.50;;;;;;5127376;28;19923;-45
2022/05/18 02:40:58;;;;;;;;;;;19.80;53.80;;;;;;5121801;28;19931;-45
2022/05/18 02:43:24;;;;;;;;;;;20.10;57.80;;;;;;5106323;28;19924;-48
2022/05/18 02:45:59;;;;;;;;;;;21.00;58.40;;;;;;5120469;28;19923;-44
2022/05/18 02:48:25;;;;;;;;;;;21.80;56.60;;;;;;5121547;28;20438;-45
2022/05/18 02:50:50;;;;;;;;;;;20.60;55.70;;;;;;5127164;28;19923;-46
2022/05/18 02:53:16;;;;;;;;;;;20.00;55.10;;;;;;5121486;28;19934;-48
2022/05/18 02:58:26;;;;;;;;;;;19.90;56.70;;;;;;5127291;28;19934;-45
2022/05/18 03:00:53;;;;;;;;;;;21.00;58.30;;;;;;5120252;28;20017;-45
2022/05/18 03:03:18;;;;;;;;;;;21.80;56.90;;;;;;5119374;28;19924;-47
2022/05/18 03:05:44;;;;;;;;;;;20.60;56.10;;;;;;5126466;28;20382;-47
2022/05/18 03:08:10;;;;;;;;;;;20.10;55.10;;;;;;5121311;28;20283;-48
2022/05/18 03:10:36;;;;;;;;;;;19.90;54.00;;;;;;5127303;28;20332;-48
2022/05/18 03:13:02;;;;;;;;;;;20.00;56.00;;;;;;5121384;28;19923;-45
2022/05/18 03:15:27;;;;;;;;;;;20.80;58.50;;;;;;5121327;28;20340;-45
2022/05/18 03:17:53;;;;;;;;;;;21.60;57.20;;;;;;5126828;27;20210;-45
2022/05/18 03:25:48;;;;;;;;;;;19.80;54.40;;;;;;5126282;28;19928;-46
2022/05/18 03:28:14;;;;;;;;;;;19.60;53.50;;;;;;5121246;28;19931;-48
2022/05/18 03:30:40;;;;;;;;;;;20.30;58.40;;;;;;5121123;28;19924;-49
2022/05/18 03:33:06;;;;;;;;;;;21.20;58.20;;;;;;5126435;28;19969;-46
2022/05/18 03:35:31;;;;;;;;;;;21.40;56.50;;;;;;5121127;28;20409;-46
2022/05/18 03:37:57;;;;;;;;;;;20.30;56.00;;;;;;5119272;28;19938;-49
2022/05/18 03:40:23;;;;;;;;;;;19.90;54.70;;;;;;5106234;28;20051;-45
2022/05/18 03:42:49;;;;;;;;;;;19.80;53.80;;;;;;5120573;28;20424;-47
2022/05/18 03:45:14;;;;;;;;;;;20.30;58.30;;;;;;5126099;28;19937;-45
2022/05/18 03:47:42;;;;;;;;;;;21.10;58.20;;;;;;5120870;28;19930;-45
2022/05/18 03:50:07;;;;;;;;;;;21.60;56.30;;;;;;5120693;28;20389;-46
2022/05/18 03:52:33;;;;;;;;;;;20.50;55.80;;;;;;5126360;28;19923;-45
2022/05/18 03:54:59;;;;;;;;;;;20.00;54.90;;;;;;5120647;28;19949;-44
2022/05/18 03:57:25;;;;;;;;;;;19.80;54.00;;;;;;5118152;28;19927;-48
2022/05/18 03:59:51;;;;;;;;;;;19.70;54.40;;;;;;5106786;28;19969;-46
2022/05/18 04:02:16;;;;;;;;;;;20.50;58.30;;;;;;5120518;28;19945;-45
2022/05/18 04:04:42;;;;;;;;;;;21.30;57.90;;;;;;5125919;28;19924;-45
2022/05/18 04:07:08;;;;;;;;;;;21.40;56.10;;;;;;5120586;28;19931;-45
2022/05/18 04:09:34;;;;;;;;;;;20.40;55.70;;;;;;5120418;28;20429;-45
2022/05/18 04:12:01;;;;;;;;;;;19.90;54.50;;;;;;5125910;28;20260;-45
2022/05/18 04:14:27;;;;;;;;;;;19.80;53.50;;;;;;5119167;28;19941;-46
2022/05/18 04:16:52;;;;;;;;;;;20.30;57.80;;;;;;5118408;28;19931;-49
2022/05/18 04:19:18;;;;;;;;;;;21.10;58.00;;;;;;5125190;28;19992;-47
2022/05/18 04:21:44;;;;;;;;;;;21.50;56.30;;;;;;5120167;28;20260;-48
2022/05/18 04:24:10;;;;;;;;;;;20.40;55.90;;;;;;5125707;28;19943;-46
2022/05/18 04:26:36;;;;;;;;;;;19.90;54.70;;;;;;5102130;28;20450;-45
2022/05/18 04:29:01;;;;;;;;;;;19.60;54.10;;;;;;5120326;27;19981;-47
2022/05/18 04:31:27;;;;;;;;;;;20.10;57.60;;;;;;5129299;28;19930;-48
2022/05/18 04:33:53;;;;;;;;;;;20.90;58.50;;;;;;5121201;28;19931;-48
2022/05/18 04:36:19;;;;;;;;;;;21.70;56.80;;;;;;5123087;28;19934;-53
2022/05/18 04:38:44;;;;;;;;;;;21.70;56.40;;;;;;5128884;28;19976;-55
2022/05/18 04:41:11;;;;;;;;;;;21.80;54.50;;;;;;5123716;28;20465;-56
2022/05/18 04:43:37;;;;;;;;;;;21.80;53.60;;;;;;5126911;28;19980;-55
2022/05/18 04:46:03;;;;;;;;;;;21.80;53.10;;;;;;5107667;28;19924;-56
2022/05/18 04:48:32;;;;;;;;;;;21.80;52.80;;;;;;5123727;28;20420;-53
2022/05/18 04:50:58;;;;;;;;;;;21.90;52.40;;;;;;5128012;28;19927;-52
2022/05/18 04:53:24;;;;;;;;;;;22.00;52.20;;;;;;5121634;28;19945;-55
2022/05/18 04:55:50;;;;;;;;;;;22.00;52.20;;;;;;5123021;28;19924;-53
2022/05/18 04:58:15;;;;;;;;;;;22.10;52.10;;;;;;5110642;28;19923;-56
2022/05/18 05:00:42;;;;;;;;;;;22.10;51.90;;;;;;5123672;28;19927;-55
2022/05/18 05:03:08;;;;;;;;;;;22.20;51.70;;;;;;5123327;28;19923;-54
2022/05/18 05:05:34;;;;;;;;;;;22.30;51.50;;;;;;5128842;28;19973;-56
2022/05/18 05:07:59;;;;;;;;;;;22.30;51.50;;;;;;5119745;28;19923;-54
2022/05/18 05:10:25;;;;;;;;;;;22.30;51.30;;;;;;5126445;28;19946;-54
2022/05/18 05:12:51;;;;;;;;;;;22.40;51.20;;;;;;5122160;28;19967;-55
2022/05/18 05:15:17;;;;;;;;;;;22.40;51.20;;;;;;5104506;28;19927;-54
2022/05/18 05:17:43;;;;;;;;;;;21.50;52.30;;;;;;5128588;28;19931;-54
2022/05/18 05:20:10;;;;;;;;;;;21.50;52.10;;;;;;5104861;28;19923;-58
2022/05/18 05:22:35;;;;;;;;;;;21.50;53.40;;;;;;5123339;28;20068;-59
2022/05/18 05:25:01;;;;;;;;;;;21.60;53.90;;;;;;5128548;28;19949;-59
2022/05/18 05:27:27;;;;;;;;;;;21.70;53.20;;;;;;5122103;28;20446;-57
2022/05/18 05:29:53;;;;;;;;;;;21.80;53.00;;;;;;5126061;28;19939;-57
2022/05/18 05:32:19;;;;;;;;;;;21.70;53.00;;;;;;5122229;28;19924;-55
2022/05/18 05:34:45;;;;;;;;;;;21.80;52.50;;;;;;5122644;28;19927;-56
2022/05/18 05:37:11;;;;;;;;;;;21.80;52.50;;;;;;5128196;28;19924;-56
2022/05/18 05:39:36;;;;;;;;;;;21.80;52.30;;;;;;5122778;28;19923;-58
2022/05/18 05:42:02;;;;;;;;;;;21.80;52.40;;;;;;5086355;28;20415;-58
2022/05/18 05:44:28;;;;;;;;;;;21.80;52.20;;;;;;5128301;28;19977;-58
2022/05/18 05:46:54;;;;;;;;;;;21.50;51.10;;;;;;5120425;28;19923;-58
2022/05/18 05:49:20;;;;;;;;;;;21.10;50.10;;;;;;5126502;28;20223;-57
2022/05/18 05:51:46;;;;;;;;;;;21.00;49.70;;;;;;5122673;28;19930;-59
2022/05/18 05:54:11;;;;;;;;;;;21.30;52.10;;;;;;5122675;28;19931;-59
2022/05/18 05:56:37;;;;;;;;;;;21.40;52.70;;;;;;5127926;28;20018;-58
2022/05/18 05:59:03;;;;;;;;;;;21.60;52.80;;;;;;5122277;28;19934;-58
2022/05/18 06:01:29;;;;;;;;;;;21.60;52.80;;;;;;5122588;28;20626;-59
2022/05/18 06:03:55;;;;;;;;;;;21.60;52.80;;;;;;5107766;28;20409;-58
2022/05/18 06:06:21;;;;;;;;;;;21.60;52.90;;;;;;5119775;28;19927;-58
2022/05/18 06:08:47;;;;;;;;;;;21.60;53.00;;;;;;5125151;28;19930;-57
2022/05/18 06:11:13;;;;;;;;;;;21.70;52.70;;;;;;5106458;28;19935;-59
2022/05/18 06:13:39;;;;;;;;;;;21.80;52.30;;;;;;5103988;28;20371;-57
2022/05/18 06:16:06;;;;;;;;;;;21.80;52.20;;;;;;5127501;28;19966;-59
2022/05/18 06:18:31;;;;;;;;;;;21.80;52.10;;;;;;5122180;28;20334;-58
2022/05/18 06:20:58;;;;;;;;;;;22.00;51.90;;;;;;5122193;28;19934;-59
2022/05/18 06:23:24;;;;;;;;;;;21.90;52.20;;;;;;5125649;28;19927;-57
2022/05/18 06:25:50;;;;;;;;;;;21.90;52.30;;;;;;5120463;28;19973;-59
2022/05/18 06:28:16;;;;;;;;;;;21.90;52.10;;;;;;5121832;28;19928;-59
2022/05/18 06:30:41;;;;;;;;;;;22.00;51.90;;;;;;5127457;28;19977;-56
2022/05/18 06:33:07;;;;;;;;;;;22.10;51.70;;;;;;5121849;28;20329;-58
2022/05/18 06:35:33;;;;;;;;;;;22.00;51.60;;;;;;5127186;28;19932;-59
2022/05/18 06:37:59;;;;;;;;;;;22.00;51.80;;;;;;5121743;28;19923;-58
2022/05/18 06:43:09;;;;;;;;;;;22.00;51.90;;;;;;5124850;28;20317;-59
2022/05/18 06:45:35;;;;;;;;;;;22.10;51.50;;;;;;5121002;28;19947;-58
2022/05/18 06:48:01;;;;;;;;;;;22.10;51.50;;;;;;5121721;28;20347;-59
2022/05/18 06:50:27;;;;;;;;;;;22.10;51.20;;;;;;5127140;28;20013;-58
2022/05/18 06:52:52;;;;;;;;;;;22.00;51.30;;;;;;5121249;27;19923;-57
2022/05/18 06:55:18;;;;;;;;;;;22.10;51.20;;;;;;5122902;28;19992;-57
2022/05/18 06:57:44;;;;;;;;;;;22.10;51.30;;;;;;5126019;28;19930;-58
2022/05/18 07:00:10;;;;;;;;;;;20.80;53.20;;;;;;5099473;28;20399;-58
2022/05/18 07:02:36;;;;;;;;;;;19.80;55.50;;;;;;5125279;28;19954;-59
2022/05/18 07:05:02;;;;;;;;;;;20.30;57.40;;;;;;5121552;28;19923;-60
2022/05/18 07:07:28;;;;;;;;;;;21.10;56.10;;;;;;5122166;28;20079;-60
2022/05/18 07:09:53;;;;;;;;;;;21.60;54.00;;;;;;5108475;28;19924;-59
2022/05/18 07:12:19;;;;;;;;;;;21.80;53.00;;;;;;5121663;28;19924;-59
2022/05/18 07:14:45;;;;;;;;;;;21.80;52.60;;;;;;5121946;28;19974;-58
2022/05/18 07:17:11;;;;;;;;;;;21.80;52.70;;;;;;5126650;28;20322;-58
2022/05/18 07:19:37;;;;;;;;;;;21.90;52.50;;;;;;5100476;28;19927;-59
2022/05/18 07:22:04;;;;;;;;;;;21.90;52.60;;;;;;5125780;28;20440;-58
2022/05/18 07:24:30;;;;;;;;;;;22.00;52.20;;;;;;5121304;28;20330;-58
2022/05/18 07:26:56;;;;;;;;;;;22.00;52.00;;;;;;5121539;28;20174;-58
2022/05/18 07:29:22;;;;;;;;;;;22.10;51.60;;;;;;5126519;28;19976;-58
2022/05/18 07:34:32;;;;;;;;;;;22.10;51.80;;;;;;5121687;28;19927;-59
2022/05/18 07:36:58;;;;;;;;;;;22.10;51.90;;;;;;5124596;28;20436;-59
2022/05/18 07:39:24;;;;;;;;;;;22.20;51.60;;;;;;5119718;28;19981;-58
2022/05/18 07:41:51;;;;;;;;;;;22.20;51.60;;;;;;5120971;28;20406;-57
2022/05/18 07:44:17;;;;;;;;;;;22.20;51.40;;;;;;5126555;28;20032;-56
2022/05/18 07:46:42;;;;;;;;;;;22.20;51.40;;;;;;5121216;28;20010;-59
2022/05/18 07:49:08;;;;;;;;;;;21.00;53.50;;;;;;5126263;28;19928;-57
2022/05/18 07:51:34;;;;;;;;;;;20.00;55.30;;;;;;5122361;28;19924;-54
2022/05/18 07:54:00;;;;;;;;;;;20.60;54.50;;;;;;5103688;28;19923;-54
2022/05/18 07:56:26;;;;;;;;;;;21.00;51.30;;;;;;5124296;28;20406;-56
2022/05/18 07:58:53;;;;;;;;;;;21.30;50.20;;;;;;5121290;28;19928;-57
2022/05/18 08:01:19;;;;;;;;;;;21.50;51.70;;;;;;5121994;28;20678;-56
2022/05/18 08:03:45;;;;;;;;;;;21.80;52.00;;;;;;5126132;27;19930;-56
2022/05/18 08:06:10;;;;;;;;;;;21.80;52.10;;;;;;5120830;28;20277;-56
2022/05/18 08:08:36;;;;;;;;;;;21.80;52.20;;;;;;5126321;28;19927;-54
2022/05/18 08:16:32;;;;;;;;;;;22.20;50.90;;;;;;5123189;28;19934;-56
2022/05/18 08:18:58;;;;;;;;;;;22.10;50.70;;;;;;5123977;28;19945;-56
2022/05/18 08:21:24;;;;;;;;;;;22.20;50.50;;;;;;5121320;28;20359;-55
2022/05/18 08:23:50;;;;;;;;;;;22.20;50.60;;;;;;5126027;28;19934;-57
2022/05/18 08:26:15;;;;;;;;;;;22.20;50.70;;;;;;5121150;28;19931;-50
2022/05/18 08:28:42;;;;;;;;;;;22.20;50.50;;;;;;5120844;28;20325;-55
2022/05/18 08:31:07;;;;;;;;;;;20.60;53.60;;;;;;5125505;28;19976;-53
2022/05/18 08:33:33;;;;;;;;;;;20.00;55.40;;;;;;5119991;28;19927;-52
2022/05/18 08:36:00;;;;;;;;;;;20.80;55.50;;;;;;5122006;28;19932;-54
2022/05/18 08:38:25;;;;;;;;;;;21.60;53.30;;;;;;5125779;28;20063;-54
2022/05/18 08:40:52;;;;;;;;;;;21.90;52.10;;;;;;5121968;28;19923;-53
2022/05/18 08:43:25;;;;;;;;;;;22.00;51.70;;;;;;5107389;28;20344;-51
2022/05/18 08:45:54;;;;;;;;;;;22.00;51.70;;;;;;5103496;28;19930;-53
2022/05/18 08:48:34;;;;;;;;;;;22.10;51.40;;;;;;5101529;28;19924;-54
2022/05/18 08:51:02;;;;;;;;;;;22.20;50.90;;;;;;5123788;28;19927;-53
2022/05/18 08:53:49;;;;;;;;;;;22.20;50.80;;;;;;5120012;28;20231;-49
2022/05/18 08:56:19;;;;;;;;;;;21.20;52.40;;;;;;5120862;28;20362;-52
2022/05/18 08:58:45;;;;;;;;;;;20.60;55.10;;;;;;5125922;28;20027;-51
2022/05/18 09:01:25;;;;;;;;;;;21.60;52.70;;;;;;5104042;28;19927;-51
2022/05/18 09:03:55;;;;;;;;;;;22.00;51.50;;;;;;5103168;28;19923;-51
2022/05/18 09:06:31;;;;;;;;;;;22.20;50.80;;;;;;5125721;28;19976;-52
2022/05/18 09:11:54;;;;;;;;;;;22.20;50.60;;;;;;5105488;28;19946;-50
2022/05/18 09:14:20;;;;;;;;;;;22.30;49.60;;;;;;5125326;28;19928;-52
2022/05/18 09:16:53;;;;;;;;;;;21.60;50.00;;;;;;5122467;27;19927;-48
2022/05/18 09:19:39;;;;;;;;;;;20.30;52.70;;;;;;5123977;28;19933;-55
2022/05/18 09:22:07;;;;;;;;;;;20.10;53.00;;;;;;5129023;28;20410;-48
2022/05/18 09:24:51;;;;;;;;;;;21.00;52.40;;;;;;5107237;28;19923;-49
2022/05/18 09:27:46;;;;;;;;;;;21.70;51.10;;;;;;5124050;28;19924;-52
2022/05/18 09:30:12;;;;;;;;;;;21.80;50.70;;;;;;5033199;28;19980;-51
2022/05/18 09:32:38;;;;;;;;;;;22.00;50.50;;;;;;5110201;28;20367;-50
2022/05/18 09:35:17;;;;;;;;;;;22.10;50.40;;;;;;5124621;28;20358;-50
2022/05/18 09:37:50;;;;;;;;;;;22.20;50.30;;;;;;5128772;28;20388;-53
2022/05/18 09:40:18;;;;;;;;;;;22.20;50.30;;;;;;5126951;28;20018;-50
2022/05/18 09:43:02;;;;;;;;;;;22.30;49.90;;;;;;5105987;28;19924;-45
2022/05/18 09:45:29;;;;;;;;;;;22.30;49.70;;;;;;5126097;28;20234;-51
2022/05/18 09:48:00;;;;;;;;;;;20.90;51.40;;;;;;5122498;28;20374;-47
2022/05/18 09:50:26;;;;;;;;;;;20.40;53.10;;;;;;5105301;28;19972;-50
2022/05/18 09:52:52;;;;;;;;;;;21.50;50.40;;;;;;5128121;28;20229;-50
2022/05/18 09:55:20;;;;;;;;;;;22.00;49.00;;;;;;5123182;28;19923;-48
2022/05/18 09:57:51;;;;;;;;;;;22.00;48.40;;;;;;5104838;28;19928;-49
2022/05/18 10:00:20;;;;;;;;;;;21.80;47.50;;;;;;5109743;28;19930;-47
2022/05/18 10:08:35;;;;;;;;;;;22.00;48.10;;;;;;5127293;28;19930;-48
2022/05/18 10:11:04;;;;;;;;;;;22.10;48.40;;;;;;5122721;28;19946;-48
2022/05/18 10:13:31;;;;;;;;;;;21.80;47.70;;;;;;5122839;28;20427;-46
2022/05/18 10:16:14;;;;;;;;;;;20.30;52.00;;;;;;5127873;28;19987;-50
2022/05/18 10:18:45;;;;;;;;;;;20.00;52.20;;;;;;5123321;28;20044;-49
2022/05/18 10:21:17;;;;;;;;;;;20.90;50.80;;;;;;5103504;28;19971;-52
2022/05/18 10:24:01;;;;;;;;;;;21.60;48.80;;;;;;5125299;28;19949;-50
2022/05/18 10:26:31;;;;;;;;;;;21.90;48.10;;;;;;5121325;28;19927;-51
2022/05/18 10:29:02;;;;;;;;;;;22.10;47.40;;;;;;5102740;28;19924;-54
2022/05/18 10:31:32;;;;;;;;;;;22.10;47.00;;;;;;5127172;28;20438;-50
2022/05/18 10:34:08;;;;;;;;;;;22.20;47.00;;;;;;5121875;28;19923;-52
2022/05/18 10:36:35;;;;;;;;;;;22.30;46.60;;;;;;5104528;28;19934;-54
2022/05/18 10:39:00;;;;;;;;;;;21.80;46.70;;;;;;5109117;28;19923;-47
2022/05/18 10:41:35;;;;;;;;;;;20.50;50.00;;;;;;5101171;28;21437;-48
2022/05/18 10:44:03;;;;;;;;;;;20.20;51.40;;;;;;5102772;28;20281;-48
2022/05/18 10:46:30;;;;;;;;;;;21.30;48.80;;;;;;5108859;28;20389;-50
2022/05/18 10:48:59;;;;;;;;;;;21.90;47.70;;;;;;5103765;28;20002;-52
2022/05/18 10:51:30;;;;;;;;;;;22.00;47.20;;;;;;5105242;28;19923;-58
2022/05/18 10:54:05;;;;;;;;;;;22.10;47.30;;;;;;5127048;28;19924;-49
2022/05/18 10:56:31;;;;;;;;;;;22.20;47.00;;;;;;5121851;28;19987;-52
2022/05/18 10:59:15;;;;;;;;;;;22.30;46.80;;;;;;5125554;28;19924;-48
2022/05/18 11:01:46;;;;;;;;;;;22.50;43.80;;;;;;5125539;28;19928;-52
2022/05/18 11:04:14;;;;;;;;;;;20.60;47.20;;;;;;5102725;28;20276;-51
2022/05/18 11:06:40;;;;;;;;;;;20.20;47.90;;;;;;5108728;28;19958;-48
2022/05/18 11:09:14;;;;;;;;;;;20.30;48.40;;;;;;5121520;28;20104;-48
2022/05/18 11:11:43;;;;;;;;;;;21.40;46.10;;;;;;5121723;28;20427;-49
2022/05/18 11:14:14;;;;;;;;;;;21.90;45.30;;;;;;5126944;28;20073;-49
2022/05/18 11:16:51;;;;;;;;;;;22.10;45.30;;;;;;5120426;28;19934;-50
2022/05/18 11:19:36;;;;;;;;;;;22.10;45.40;;;;;;5100824;28;19927;-53
2022/05/18 11:22:10;;;;;;;;;;;22.20;45.50;;;;;;5126151;28;20374;-48
2022/05/18 11:24:41;;;;;;;;;;;22.20;45.70;;;;;;5100590;28;19928;-49
2022/05/18 11:27:25;;;;;;;;;;;22.30;45.90;;;;;;5101140;28;19924;-48
2022/05/18 11:30:02;;;;;;;;;;;22.30;46.00;;;;;;5126644;28;19957;-48
2022/05/18 11:32:31;;;;;;;;;;;22.30;45.80;;;;;;5123145;28;19930;-47
2022/05/18 11:35:06;;;;;;;;;;;22.30;46.00;;;;;;5102456;28;19924;-53
2022/05/18 11:37:36;;;;;;;;;;;22.30;45.60;;;;;;5124292;28;19985;-50
2022/05/18 11:40:19;;;;;;;;;;;20.70;49.70;;;;;;5100934;28;19961;-50
2022/05/18 11:42:49;;;;;;;;;;;20.30;50.90;;;;;;5121046;28;20024;-48
2022/05/18 11:45:38;;;;;;;;;;;20.20;50.30;;;;;;5107982;28;19923;-48
2022/05/18 11:48:11;;;;;;;;;;;21.20;49.10;;;;;;5107507;28;19975;-51
2022/05/18 11:50:52;;;;;;;;;;;22.70;45.40;;;;;;5121047;28;19927;-50
2022/05/18 11:53:37;;;;;;;;;;;21.50;47.50;;;;;;5104838;28;19984;-57
2022/05/18 11:56:21;;;;;;;;;;;21.30;48.50;;;;;;5124220;28;20018;-54
2022/05/18 11:59:27;;;;;;;;;;;21.20;48.90;;;;;;5120370;28;20389;-55
2022/05/18 12:01:56;;;;;;;;;;;21.20;49.30;;;;;;5120607;28;20030;-51
2022/05/18 12:04:22;;;;;;;;;;;20.90;50.40;;;;;;5126069;28;20434;-50
2022/05/18 12:07:01;;;;;;;;;;;21.00;50.20;;;;;;5120769;28;20011;-50
2022/05/18 12:09:30;;;;;;;;;;;20.80;50.90;;;;;;5120826;28;20586;-49
2022/05/18 12:12:08;;;;;;;;;;;20.90;50.50;;;;;;5125018;28;19967;-55
2022/05/18 12:14:46;;;;;;;;;;;20.90;49.90;;;;;;5118814;28;19972;-48
2022/05/18 12:17:17;;;;;;;;;;;20.90;49.90;;;;;;5120168;28;19979;-53
2022/05/18 12:20:01;;;;;;;;;;;21.00;49.70;;;;;;5105950;28;19928;-50
2022/05/18 12:22:40;;;;;;;;;;;21.00;49.30;;;;;;5120309;28;19927;-52
2022/05/18 12:25:07;;;;;;;;;;;20.80;49.40;;;;;;5120262;28;20417;-50
2022/05/18 12:27:33;;;;;;;;;;;20.90;49.30;;;;;;5125797;28;19979;-50
2022/05/18 12:29:59;;;;;;;;;;;20.90;49.70;;;;;;5099441;28;19967;-52
2022/05/18 12:32:25;;;;;;;;;;;20.90;49.80;;;;;;5118092;28;19975;-46
2022/05/18 12:34:57;;;;;;;;;;;21.00;49.50;;;;;;5106730;28;20379;-52
2022/05/18 12:37:33;;;;;;;;;;;20.90;49.60;;;;;;5119989;28;20393;-50
2022/05/18 12:40:18;;;;;;;;;;;20.80;50.20;;;;;;5120163;28;20592;-47
2022/05/18 12:42:48;;;;;;;;;;;20.80;50.10;;;;;;5125555;28;20429;-48
2022/05/18 12:45:26;;;;;;;;;;;21.00;49.30;;;;;;5120157;28;19930;-47
2022/05/18 12:48:06;;;;;;;;;;;20.90;49.00;;;;;;5119934;28;20422;-49
2022/05/18 12:50:36;;;;;;;;;;;21.00;48.90;;;;;;5104950;28;20385;-52
2022/05/18 12:53:03;;;;;;;;;;;20.90;49.40;;;;;;5086010;28;19927;-55
2022/05/18 12:55:31;;;;;;;;;;;20.80;49.10;;;;;;5123273;28;19927;-50
2022/05/18 12:58:18;;;;;;;;;;;20.80;49.00;;;;;;5129001;28;20021;-47
2022/05/18 13:01:16;;;;;;;;;;;20.90;48.90;;;;;;5105608;28;20314;-49
2022/05/18 13:03:43;;;;;;;;;;;20.90;49.10;;;;;;5049446;28;19934;-48
2022/05/18 13:06:13;;;;;;;;;;;21.00;49.00;;;;;;5128639;28;20023;-50
2022/05/18 13:08:39;;;;;;;;;;;21.00;49.50;;;;;;5101686;28;20387;-51
2022/05/18 13:11:14;;;;;;;;;;;21.00;49.70;;;;;;5122670;28;19924;-49
2022/05/18 13:14:06;;;;;;;;;;;21.00;49.00;;;;;;5128500;28;19930;-50
2022/05/18 13:16:37;;;;;;;;;;;20.90;49.00;;;;;;5077354;28;19927;-49
2022/05/18 13:19:12;;;;;;;;;;;20.90;48.80;;;;;;5123396;28;19924;-50
2022/05/18 13:21:51;;;;;;;;;;;20.90;48.80;;;;;;5128332;28;19923;-49
2022/05/18 13:24:17;;;;;;;;;;;21.00;48.80;;;;;;5123212;28;19943;-47
2022/05/18 13:26:44;;;;;;;;;;;21.00;49.00;;;;;;5120276;28;19923;-51
2022/05/18 13:29:12;;;;;;;;;;;20.90;49.40;;;;;;5108866;28;19987;-49
2022/05/18 13:31:38;;;;;;;;;;;21.00;49.00;;;;;;5102794;28;19967;-50
2022/05/18 13:34:07;;;;;;;;;;;21.00;49.40;;;;;;5122929;28;20431;-51
2022/05/18 13:36:37;;;;;;;;;;;21.10;49.10;;;;;;5108003;28;19927;-46
2022/05/18 13:39:04;;;;;;;;;;;21.10;49.50;;;;;;5122885;28;20400;-47
2022/05/18 13:41:30;;;;;;;;;;;21.00;48.70;;;;;;5109993;28;20350;-45
2022/05/18 13:43:59;;;;;;;;;;;21.10;48.50;;;;;;5121018;28;20437;-46
2022/05/18 13:46:25;;;;;;;;;;;21.00;48.70;;;;;;5120538;28;20027;-47
2022/05/18 13:48:54;;;;;;;;;;;21.00;49.10;;;;;;5109361;28;19924;-48
2022/05/18 13:51:20;;;;;;;;;;;20.90;49.50;;;;;;5104316;28;20289;-49
2022/05/18 13:53:54;;;;;;;;;;;21.10;48.70;;;;;;5122878;28;19944;-49
2022/05/18 13:56:21;;;;;;;;;;;21.10;48.60;;;;;;5128108;28;19985;-46
2022/05/18 13:58:47;;;;;;;;;;;21.00;48.60;;;;;;5122650;28;19923;-47
2022/05/18 14:01:17;;;;;;;;;;;21.20;48.10;;;;;;5122490;28;19927;-47
2022/05/18 14:03:43;;;;;;;;;;;21.10;48.50;;;;;;5105579;28;19927;-47
2022/05/18 14:06:13;;;;;;;;;;;21.00;48.60;;;;;;5121433;28;19923;-46
2022/05/18 14:08:40;;;;;;;;;;;21.10;48.40;;;;;;5127831;28;20270;-48
2022/05/18 14:11:07;;;;;;;;;;;21.00;48.60;;;;;;5083360;28;19923;-45
2022/05/18 14:13:33;;;;;;;;;;;21.00;48.50;;;;;;5122253;28;19924;-46
2022/05/18 14:15:59;;;;;;;;;;;21.20;48.20;;;;;;5127840;28;19971;-45
2022/05/18 14:18:35;;;;;;;;;;;21.10;48.60;;;;;;5104039;28;19930;-46
2022/05/18 14:21:05;;;;;;;;;;;21.20;48.80;;;;;;5120440;28;20289;-47
2022/05/18 14:23:32;;;;;;;;;;;21.10;49.30;;;;;;5108017;28;20398;-47
2022/05/18 14:26:02;;;;;;;;;;;21.20;48.80;;;;;;5103084;28;20048;-47
2022/05/18 14:28:38;;;;;;;;;;;21.30;48.50;;;;;;5122011;28;20378;-47
2022/05/18 14:31:04;;;;;;;;;;;21.10;48.40;;;;;;5109074;28;20014;-50
2022/05/18 14:33:44;;;;;;;;;;;21.20;48.40;;;;;;5102290;28;20322;-46
2022/05/18 14:36:17;;;;;;;;;;;21.30;48.70;;;;;;5103743;28;20275;-46
2022/05/18 14:38:44;;;;;;;;;;;21.30;48.40;;;;;;5106382;28;20023;-49
2022/05/18 14:41:11;;;;;;;;;;;21.30;48.70;;;;;;5119818;28;19927;-50
2022/05/18 14:43:37;;;;;;;;;;;21.20;49.10;;;;;;5124056;28;20544;-54
2022/05/18 14:46:04;;;;;;;;;;;21.20;48.70;;;;;;5124384;28;19927;-48
2022/05/18 14:48:33;;;;;;;;;;;21.10;49.00;;;;;;5121633;28;19992;-46
2022/05/18 14:51:22;;;;;;;;;;;21.20;49.10;;;;;;5127035;28;20030;-47
2022/05/18 14:53:53;;;;;;;;;;;21.20;49.40;;;;;;5110770;28;19971;-47